Airfield :
LOGIN :

Register | Disclaimer

   EN    FR    IT 

 










Legend :    VFR   Marginal VFR   IFR   Intensive IFR   Very Intensive IFR
Visi :
Ceiling :
>= 8 km
>= 3000ft
5 to 8 km
1000 to 3000 ft
1500m to 5 km
500 to 1000 ft
800 to 1500m
200 to 500 ft
< 800m
< 200 ft
Symbols :   Thunderstorms  Fog  Heavy snow  Heavy precipitations  Wind > 20 kt
SIGMETs :     Misc.  Thunderstorms  Icing  Turbulence  Mountain Waves  Volcanic Ashes






- Airport Elevation : 1649 ft
- IATA code : HHN


EDFH - Frankfurt-Hahn Rhineland-Palatinate

CURRENT METAR :
  • 211350Z 01009KT 9999 VCSH SCT020 04/02 Q1019

EXPIRED METARs :
  • 211320Z 01010KT 340V050 9999 VCSH SCT010CB 04/02 Q1019
  • 211250Z 02014KT 8000 VCSH FEW003 SCT009TCU 02/00 Q1020
  • 211220Z 03009KT 350V060 9999 -RA BKN010 03/01 Q1019
  • 211150Z 03010KT 360V080 7000 -RA SCT003 BKN007 02/01 Q1019
  • 211120Z 01012KT 330V040 5000 -SN FEW003 BKN005 02/01 Q1019
  • 211050Z 35011KT 3000 -SN BR BKN003 01/00 Q1019
  • 211020Z 34009KT 3000 -SN BR SCT002 SCT005 01/00 Q1019
  • 210950Z 36011KT 4500 -SHSN BR FEW008 SCT013CB 01/M00 Q1018
  • 210920Z 34008KT 300V020 9999 -SHSN FEW003 BKN012CB 01/M01 Q1018

TAF TAF EDFH
Valid from the 21 at 12:00 until the 22 at 12:00 UTC


211100Z 2112/2212 02010KT 9999 BKN015
PROB40
TEMPO 2112/2118 4000 SHRAGS BKN006 BKN012CB
PROB30
TEMPO 2112/2113 2500 SHSN BKN003 BKN012CB
PROB30
TEMPO 2210/2212 SHRA BKN025CB



MET'MAP, your aeronautical weather chart ! - Copyright ORBIFLY December 2007 - Disclaimer

ORBIFLY MET'MAP TEAM :

Programming & Development : Alexandra Zaïnal
Original concept : Baudouin d'Aumeries
Technical & hardware support : Manuel Goepfert
Assistance : Marc-Olivier Méhu




SOURCES & CREDITS :

   NOAA